sensor_id;sensor_type;location;lat;lon;timestamp;pressure;altitude;pressure_sealevel;temperature
9985;BMP180;16737;50.932;6.780;2023-04-19T00:00:36;101202.00;;;16.90
9985;BMP180;16737;50.932;6.780;2023-04-19T00:03:04;101204.00;;;16.90
9985;BMP180;16737;50.932;6.780;2023-04-19T00:05:32;101194.00;;;16.90
9985;BMP180;16737;50.932;6.780;2023-04-19T00:08:01;101201.00;;;16.90
9985;BMP180;16737;50.932;6.780;2023-04-19T00:10:28;101194.00;;;16.90
9985;BMP180;16737;50.932;6.780;2023-04-19T00:12:55;101191.00;;;16.80
9985;BMP180;16737;50.932;6.780;2023-04-19T00:15:22;101185.00;;;16.80
9985;BMP180;16737;50.932;6.780;2023-04-19T00:17:49;101187.00;;;16.80
9985;BMP180;16737;50.932;6.780;2023-04-19T00:20:16;101184.00;;;16.80
9985;BMP180;16737;50.932;6.780;2023-04-19T00:22:44;101193.00;;;16.80
9985;BMP180;16737;50.932;6.780;2023-04-19T00:25:11;101183.00;;;16.70
9985;BMP180;16737;50.932;6.780;2023-04-19T00:27:38;101184.00;;;16.70
9985;BMP180;16737;50.932;6.780;2023-04-19T00:30:06;101179.00;;;16.70
9985;BMP180;16737;50.932;6.780;2023-04-19T00:32:34;101181.00;;;16.70
9985;BMP180;16737;50.932;6.780;2023-04-19T00:35:01;101194.00;;;16.70
9985;BMP180;16737;50.932;6.780;2023-04-19T00:37:28;101193.00;;;16.70
9985;BMP180;16737;50.932;6.780;2023-04-19T00:39:56;101200.00;;;16.70
9985;BMP180;16737;50.932;6.780;2023-04-19T00:42:23;101185.00;;;16.70
9985;BMP180;16737;50.932;6.780;2023-04-19T00:44:50;101186.00;;;16.70
9985;BMP180;16737;50.932;6.780;2023-04-19T00:47:17;101181.00;;;16.70
9985;BMP180;16737;50.932;6.780;2023-04-19T00:49:45;101189.00;;;16.70
9985;BMP180;16737;50.932;6.780;2023-04-19T00:52:12;101189.00;;;16.70
9985;BMP180;16737;50.932;6.780;2023-04-19T00:54:41;101182.00;;;16.70
9985;BMP180;16737;50.932;6.780;2023-04-19T00:57:10;101167.00;;;16.70
9985;BMP180;16737;50.932;6.780;2023-04-19T00:59:38;101184.00;;;16.50
9985;BMP180;16737;50.932;6.780;2023-04-19T01:02:04;101178.00;;;16.70
9985;BMP180;16737;50.932;6.780;2023-04-19T01:04:32;101166.00;;;16.60
9985;BMP180;16737;50.932;6.780;2023-04-19T01:07:00;101176.00;;;16.60
9985;BMP180;16737;50.932;6.780;2023-04-19T01:09:27;101171.00;;;16.60
9985;BMP180;16737;50.932;6.780;2023-04-19T01:11:54;101166.00;;;16.60
9985;BMP180;16737;50.932;6.780;2023-04-19T01:14:22;101166.00;;;16.50
9985;BMP180;16737;50.932;6.780;2023-04-19T01:16:50;101164.00;;;16.50
9985;BMP180;16737;50.932;6.780;2023-04-19T01:19:17;101160.00;;;16.50
9985;BMP180;16737;50.932;6.780;2023-04-19T01:21:44;101166.00;;;16.40
9985;BMP180;16737;50.932;6.780;2023-04-19T01:24:13;101165.00;;;16.40
9985;BMP180;16737;50.932;6.780;2023-04-19T01:26:40;101169.00;;;16.40
9985;BMP180;16737;50.932;6.780;2023-04-19T01:29:07;101167.00;;;16.40
9985;BMP180;16737;50.932;6.780;2023-04-19T01:31:33;101150.00;;;16.30
9985;BMP180;16737;50.932;6.780;2023-04-19T01:34:01;101155.00;;;16.30
9985;BMP180;16737;50.932;6.780;2023-04-19T01:36:27;101155.00;;;16.20
9985;BMP180;16737;50.932;6.780;2023-04-19T01:38:56;101158.00;;;16.20
9985;BMP180;16737;50.932;6.780;2023-04-19T01:41:24;101152.00;;;16.20
9985;BMP180;16737;50.932;6.780;2023-04-19T01:43:52;101154.00;;;16.20
9985;BMP180;16737;50.932;6.780;2023-04-19T01:46:19;101154.00;;;16.10
9985;BMP180;16737;50.932;6.780;2023-04-19T01:48:46;101141.00;;;16.10
9985;BMP180;16737;50.932;6.780;2023-04-19T01:51:12;101140.00;;;16.10
9985;BMP180;16737;50.932;6.780;2023-04-19T01:53:41;101137.00;;;16.00
9985;BMP180;16737;50.932;6.780;2023-04-19T01:56:08;101146.00;;;16.00
9985;BMP180;16737;50.932;6.780;2023-04-19T01:58:37;101135.00;;;16.00
9985;BMP180;16737;50.932;6.780;2023-04-19T02:01:04;101136.00;;;16.00
9985;BMP180;16737;50.932;6.780;2023-04-19T02:03:31;101137.00;;;15.90
9985;BMP180;16737;50.932;6.780;2023-04-19T02:05:57;101141.00;;;15.90
9985;BMP180;16737;50.932;6.780;2023-04-19T02:08:25;101140.00;;;15.80
9985;BMP180;16737;50.932;6.780;2023-04-19T02:10:52;101129.00;;;15.80
9985;BMP180;16737;50.932;6.780;2023-04-19T02:13:19;101127.00;;;15.80
9985;BMP180;16737;50.932;6.780;2023-04-19T02:15:47;101126.00;;;15.80
9985;BMP180;16737;50.932;6.780;2023-04-19T02:18:15;101135.00;;;15.80
9985;BMP180;16737;50.932;6.780;2023-04-19T02:20:43;101126.00;;;15.70
9985;BMP180;16737;50.932;6.780;2023-04-19T02:23:10;101127.00;;;15.70
9985;BMP180;16737;50.932;6.780;2023-04-19T02:25:38;101133.00;;;15.70
9985;BMP180;16737;50.932;6.780;2023-04-19T02:28:05;101135.00;;;15.50
9985;BMP180;16737;50.932;6.780;2023-04-19T02:30:31;101118.00;;;15.60
9985;BMP180;16737;50.932;6.780;2023-04-19T02:33:00;101130.00;;;15.60
9985;BMP180;16737;50.932;6.780;2023-04-19T02:35:26;101131.00;;;15.60
9985;BMP180;16737;50.932;6.780;2023-04-19T02:37:53;101124.00;;;15.50
9985;BMP180;16737;50.932;6.780;2023-04-19T02:40:20;101129.00;;;15.50
9985;BMP180;16737;50.932;6.780;2023-04-19T02:42:51;101130.00;;;15.50
9985;BMP180;16737;50.932;6.780;2023-04-19T02:45:18;101127.00;;;15.50
9985;BMP180;16737;50.932;6.780;2023-04-19T02:47:45;101128.00;;;15.50
9985;BMP180;16737;50.932;6.780;2023-04-19T02:50:15;101125.00;;;15.50
9985;BMP180;16737;50.932;6.780;2023-04-19T02:52:42;101126.00;;;15.40
9985;BMP180;16737;50.932;6.780;2023-04-19T02:55:09;101125.00;;;15.50
9985;BMP180;16737;50.932;6.780;2023-04-19T02:57:36;101128.00;;;15.40
9985;BMP180;16737;50.932;6.780;2023-04-19T03:00:04;101125.00;;;15.40
9985;BMP180;16737;50.932;6.780;2023-04-19T03:02:33;101127.00;;;15.40
9985;BMP180;16737;50.932;6.780;2023-04-19T03:05:00;101114.00;;;15.40
9985;BMP180;16737;50.932;6.780;2023-04-19T03:07:28;101118.00;;;15.40
9985;BMP180;16737;50.932;6.780;2023-04-19T03:09:55;101129.00;;;15.40
9985;BMP180;16737;50.932;6.780;2023-04-19T03:12:22;101125.00;;;15.40
9985;BMP180;16737;50.932;6.780;2023-04-19T03:14:49;101120.00;;;15.40
9985;BMP180;16737;50.932;6.780;2023-04-19T03:17:16;101115.00;;;15.40
9985;BMP180;16737;50.932;6.780;2023-04-19T03:19:43;101118.00;;;15.40
9985;BMP180;16737;50.932;6.780;2023-04-19T03:22:09;101115.00;;;15.40
9985;BMP180;16737;50.932;6.780;2023-04-19T03:24:38;101116.00;;;15.40
9985;BMP180;16737;50.932;6.780;2023-04-19T03:27:04;101109.00;;;15.40
9985;BMP180;16737;50.932;6.780;2023-04-19T03:29:31;101116.00;;;15.40
9985;BMP180;16737;50.932;6.780;2023-04-19T03:31:59;101116.00;;;15.40
9985;BMP180;16737;50.932;6.780;2023-04-19T03:34:26;101104.00;;;15.40
9985;BMP180;16737;50.932;6.780;2023-04-19T03:36:53;101070.00;;;15.40
9985;BMP180;16737;50.932;6.780;2023-04-19T03:39:20;101102.00;;;15.40
9985;BMP180;16737;50.932;6.780;2023-04-19T03:41:49;101109.00;;;15.40
9985;BMP180;16737;50.932;6.780;2023-04-19T03:44:16;101102.00;;;15.40
9985;BMP180;16737;50.932;6.780;2023-04-19T03:46:42;101117.00;;;15.40
9985;BMP180;16737;50.932;6.780;2023-04-19T03:49:10;101109.00;;;15.40
9985;BMP180;16737;50.932;6.780;2023-04-19T03:51:38;101100.00;;;15.40
9985;BMP180;16737;50.932;6.780;2023-04-19T03:54:05;101107.00;;;15.40
9985;BMP180;16737;50.932;6.780;2023-04-19T03:56:31;101099.00;;;15.40
9985;BMP180;16737;50.932;6.780;2023-04-19T03:59:00;101093.00;;;15.40
9985;BMP180;16737;50.932;6.780;2023-04-19T04:01:27;101103.00;;;15.40
9985;BMP180;16737;50.932;6.780;2023-04-19T04:03:53;101102.00;;;15.40
9985;BMP180;16737;50.932;6.780;2023-04-19T04:06:20;101101.00;;;15.40
9985;BMP180;16737;50.932;6.780;2023-04-19T04:08:47;101110.00;;;15.40
9985;BMP180;16737;50.932;6.780;2023-04-19T04:11:14;101103.00;;;15.30
9985;BMP180;16737;50.932;6.780;2023-04-19T04:13:41;101106.00;;;15.40
9985;BMP180;16737;50.932;6.780;2023-04-19T04:16:09;101108.00;;;15.30
9985;BMP180;16737;50.932;6.780;2023-04-19T04:18:36;101093.00;;;15.30
9985;BMP180;16737;50.932;6.780;2023-04-19T04:21:03;101100.00;;;15.40
9985;BMP180;16737;50.932;6.780;2023-04-19T04:23:31;101089.00;;;15.40
9985;BMP180;16737;50.932;6.780;2023-04-19T04:25:59;101103.00;;;15.40
9985;BMP180;16737;50.932;6.780;2023-04-19T04:28:27;101109.00;;;15.40
9985;BMP180;16737;50.932;6.780;2023-04-19T04:30:54;101096.00;;;15.40
9985;BMP180;16737;50.932;6.780;2023-04-19T04:33:25;101096.00;;;15.40
9985;BMP180;16737;50.932;6.780;2023-04-19T04:35:53;101101.00;;;15.50
9985;BMP180;16737;50.932;6.780;2023-04-19T04:38:21;101102.00;;;15.50
9985;BMP180;16737;50.932;6.780;2023-04-19T04:40:51;101108.00;;;15.50
9985;BMP180;16737;50.932;6.780;2023-04-19T04:43:19;101103.00;;;15.50
9985;BMP180;16737;50.932;6.780;2023-04-19T04:45:47;101109.00;;;15.50
9985;BMP180;16737;50.932;6.780;2023-04-19T04:48:14;101088.00;;;15.60
9985;BMP180;16737;50.932;6.780;2023-04-19T04:50:43;101110.00;;;15.40
9985;BMP180;16737;50.932;6.780;2023-04-19T04:53:10;101100.00;;;15.60
9985;BMP180;16737;50.932;6.780;2023-04-19T04:55:38;101096.00;;;15.70
9985;BMP180;16737;50.932;6.780;2023-04-19T04:58:05;101105.00;;;15.70
9985;BMP180;16737;50.932;6.780;2023-04-19T05:00:32;101096.00;;;15.60
9985;BMP180;16737;50.932;6.780;2023-04-19T05:02:59;101117.00;;;15.70
9985;BMP180;16737;50.932;6.780;2023-04-19T05:05:27;101125.00;;;15.70
9985;BMP180;16737;50.932;6.780;2023-04-19T05:07:55;101116.00;;;15.80
9985;BMP180;16737;50.932;6.780;2023-04-19T05:10:22;101117.00;;;15.80
9985;BMP180;16737;50.932;6.780;2023-04-19T05:12:49;101108.00;;;15.80
9985;BMP180;16737;50.932;6.780;2023-04-19T05:15:16;101113.00;;;15.80
9985;BMP180;16737;50.932;6.780;2023-04-19T05:17:43;101108.00;;;15.80
9985;BMP180;16737;50.932;6.780;2023-04-19T05:20:10;101123.00;;;15.80
9985;BMP180;16737;50.932;6.780;2023-04-19T05:22:37;101110.00;;;15.80
9985;BMP180;16737;50.932;6.780;2023-04-19T05:25:08;101107.00;;;15.80
9985;BMP180;16737;50.932;6.780;2023-04-19T05:27:35;101107.00;;;15.80
9985;BMP180;16737;50.932;6.780;2023-04-19T05:30:03;101107.00;;;15.80
9985;BMP180;16737;50.932;6.780;2023-04-19T05:32:30;101104.00;;;15.80
9985;BMP180;16737;50.932;6.780;2023-04-19T05:34:57;101107.00;;;15.70
9985;BMP180;16737;50.932;6.780;2023-04-19T05:37:24;101099.00;;;15.80
9985;BMP180;16737;50.932;6.780;2023-04-19T05:39:51;101099.00;;;15.80
9985;BMP180;16737;50.932;6.780;2023-04-19T05:42:19;101101.00;;;15.90
9985;BMP180;16737;50.932;6.780;2023-04-19T05:44:46;101099.00;;;15.90
9985;BMP180;16737;50.932;6.780;2023-04-19T05:47:13;101101.00;;;15.90
9985;BMP180;16737;50.932;6.780;2023-04-19T05:49:42;101094.00;;;16.00
9985;BMP180;16737;50.932;6.780;2023-04-19T05:52:09;101100.00;;;16.00
9985;BMP180;16737;50.932;6.780;2023-04-19T05:54:35;101100.00;;;16.00
9985;BMP180;16737;50.932;6.780;2023-04-19T05:57:03;101094.00;;;16.10
9985;BMP180;16737;50.932;6.780;2023-04-19T05:59:31;101100.00;;;16.10
9985;BMP180;16737;50.932;6.780;2023-04-19T06:01:58;101096.00;;;16.10
9985;BMP180;16737;50.932;6.780;2023-04-19T06:04:26;101102.00;;;16.00
9985;BMP180;16737;50.932;6.780;2023-04-19T06:06:53;101104.00;;;16.00
9985;BMP180;16737;50.932;6.780;2023-04-19T06:09:20;101111.00;;;16.00
9985;BMP180;16737;50.932;6.780;2023-04-19T06:11:47;101109.00;;;16.00
9985;BMP180;16737;50.932;6.780;2023-04-19T06:14:13;101104.00;;;15.90
9985;BMP180;16737;50.932;6.780;2023-04-19T06:16:42;101111.00;;;15.90
9985;BMP180;16737;50.932;6.780;2023-04-19T06:19:09;101112.00;;;15.90
9985;BMP180;16737;50.932;6.780;2023-04-19T06:21:35;101078.00;;;15.90
9985;BMP180;16737;50.932;6.780;2023-04-19T06:24:05;101105.00;;;15.80
9985;BMP180;16737;50.932;6.780;2023-04-19T06:26:32;101108.00;;;15.70
9985;BMP180;16737;50.932;6.780;2023-04-19T06:28:58;101110.00;;;15.70
9985;BMP180;16737;50.932;6.780;2023-04-19T06:31:26;101104.00;;;15.70
9985;BMP180;16737;50.932;6.780;2023-04-19T06:33:54;101103.00;;;15.70
9985;BMP180;16737;50.932;6.780;2023-04-19T06:36:21;101100.00;;;15.70
9985;BMP180;16737;50.932;6.780;2023-04-19T06:38:48;101100.00;;;15.70
9985;BMP180;16737;50.932;6.780;2023-04-19T06:41:15;101094.00;;;15.70
9985;BMP180;16737;50.932;6.780;2023-04-19T06:43:42;101094.00;;;15.70
9985;BMP180;16737;50.932;6.780;2023-04-19T06:46:09;101088.00;;;15.70
9985;BMP180;16737;50.932;6.780;2023-04-19T06:48:38;101100.00;;;15.70
9985;BMP180;16737;50.932;6.780;2023-04-19T06:51:06;101104.00;;;15.70
9985;BMP180;16737;50.932;6.780;2023-04-19T06:53:33;101109.00;;;15.80
9985;BMP180;16737;50.932;6.780;2023-04-19T06:56:03;101111.00;;;15.70
9985;BMP180;16737;50.932;6.780;2023-04-19T06:58:31;101107.00;;;15.80
9985;BMP180;16737;50.932;6.780;2023-04-19T07:00:59;101105.00;;;15.80
9985;BMP180;16737;50.932;6.780;2023-04-19T07:03:26;101104.00;;;15.80
9985;BMP180;16737;50.932;6.780;2023-04-19T07:05:53;101103.00;;;15.80
9985;BMP180;16737;50.932;6.780;2023-04-19T07:08:23;101104.00;;;15.80
9985;BMP180;16737;50.932;6.780;2023-04-19T07:10:50;101100.00;;;15.90
9985;BMP180;16737;50.932;6.780;2023-04-19T07:13:17;101104.00;;;15.90
9985;BMP180;16737;50.932;6.780;2023-04-19T07:15:44;101102.00;;;15.90
9985;BMP180;16737;50.932;6.780;2023-04-19T07:18:11;101104.00;;;16.00
9985;BMP180;16737;50.932;6.780;2023-04-19T07:20:40;101100.00;;;16.00
9985;BMP180;16737;50.932;6.780;2023-04-19T07:23:09;101087.00;;;16.00
9985;BMP180;16737;50.932;6.780;2023-04-19T07:25:37;101083.00;;;16.00
9985;BMP180;16737;50.932;6.780;2023-04-19T07:28:04;101093.00;;;16.10
9985;BMP180;16737;50.932;6.780;2023-04-19T07:30:31;101095.00;;;16.10
9985;BMP180;16737;50.932;6.780;2023-04-19T07:32:58;101087.00;;;16.10
9985;BMP180;16737;50.932;6.780;2023-04-19T07:35:25;101087.00;;;16.20
9985;BMP180;16737;50.932;6.780;2023-04-19T07:37:52;101088.00;;;16.00
9985;BMP180;16737;50.932;6.780;2023-04-19T07:40:19;101088.00;;;16.30
9985;BMP180;16737;50.932;6.780;2023-04-19T07:42:47;101083.00;;;16.30
9985;BMP180;16737;50.932;6.780;2023-04-19T07:45:14;101087.00;;;16.40
9985;BMP180;16737;50.932;6.780;2023-04-19T07:47:41;101062.00;;;16.50
9985;BMP180;16737;50.932;6.780;2023-04-19T07:50:09;101078.00;;;16.50
9985;BMP180;16737;50.932;6.780;2023-04-19T07:52:37;101080.00;;;16.60
9985;BMP180;16737;50.932;6.780;2023-04-19T07:55:05;101074.00;;;16.60
9985;BMP180;16737;50.932;6.780;2023-04-19T07:57:33;101043.00;;;16.70
9985;BMP180;16737;50.932;6.780;2023-04-19T08:00:02;101082.00;;;16.70
9985;BMP180;16737;50.932;6.780;2023-04-19T08:02:29;101072.00;;;16.70
9985;BMP180;16737;50.932;6.780;2023-04-19T08:04:56;101084.00;;;16.80
9985;BMP180;16737;50.932;6.780;2023-04-19T08:07:23;101077.00;;;16.80
9985;BMP180;16737;50.932;6.780;2023-04-19T08:09:50;101065.00;;;16.90
9985;BMP180;16737;50.932;6.780;2023-04-19T08:12:17;101072.00;;;16.90
9985;BMP180;16737;50.932;6.780;2023-04-19T08:14:44;101073.00;;;17.00
9985;BMP180;16737;50.932;6.780;2023-04-19T08:17:13;101084.00;;;17.00
9985;BMP180;16737;50.932;6.780;2023-04-19T08:19:45;101074.00;;;17.00
9985;BMP180;16737;50.932;6.780;2023-04-19T08:22:12;101082.00;;;17.10
9985;BMP180;16737;50.932;6.780;2023-04-19T08:24:39;101080.00;;;17.10
9985;BMP180;16737;50.932;6.780;2023-04-19T08:27:05;101085.00;;;17.10
9985;BMP180;16737;50.932;6.780;2023-04-19T08:29:32;101069.00;;;17.20
9985;BMP180;16737;50.932;6.780;2023-04-19T08:31:59;101074.00;;;17.20
9985;BMP180;16737;50.932;6.780;2023-04-19T08:34:28;101068.00;;;17.30
9985;BMP180;16737;50.932;6.780;2023-04-19T08:36:55;101082.00;;;17.30
9985;BMP180;16737;50.932;6.780;2023-04-19T08:39:22;101071.00;;;17.40
9985;BMP180;16737;50.932;6.780;2023-04-19T08:41:50;101069.00;;;17.50
9985;BMP180;16737;50.932;6.780;2023-04-19T08:44:19;101064.00;;;17.60
9985;BMP180;16737;50.932;6.780;2023-04-19T08:46:48;101058.00;;;17.60
9985;BMP180;16737;50.932;6.780;2023-04-19T08:49:16;101040.00;;;17.70
9985;BMP180;16737;50.932;6.780;2023-04-19T08:51:47;101064.00;;;17.70
9985;BMP180;16737;50.932;6.780;2023-04-19T08:54:15;101058.00;;;17.70
9985;BMP180;16737;50.932;6.780;2023-04-19T08:56:43;101059.00;;;17.70
9985;BMP180;16737;50.932;6.780;2023-04-19T08:59:10;101056.00;;;17.80
9985;BMP180;16737;50.932;6.780;2023-04-19T09:01:37;101049.00;;;17.80
9985;BMP180;16737;50.932;6.780;2023-04-19T09:04:06;101056.00;;;17.90
9985;BMP180;16737;50.932;6.780;2023-04-19T09:06:35;101042.00;;;18.00
9985;BMP180;16737;50.932;6.780;2023-04-19T09:09:15;101045.00;;;18.00
9985;BMP180;16737;50.932;6.780;2023-04-19T09:11:42;101040.00;;;18.10
9985;BMP180;16737;50.932;6.780;2023-04-19T09:14:14;101040.00;;;18.20
9985;BMP180;16737;50.932;6.780;2023-04-19T09:16:41;101037.00;;;18.20
9985;BMP180;16737;50.932;6.780;2023-04-19T09:19:09;101039.00;;;18.30
9985;BMP180;16737;50.932;6.780;2023-04-19T09:21:37;101033.00;;;18.30
9985;BMP180;16737;50.932;6.780;2023-04-19T09:24:06;101027.00;;;18.40
9985;BMP180;16737;50.932;6.780;2023-04-19T09:26:35;101020.00;;;18.50
9985;BMP180;16737;50.932;6.780;2023-04-19T09:29:04;101028.00;;;18.50
9985;BMP180;16737;50.932;6.780;2023-04-19T09:31:34;101030.00;;;18.60
9985;BMP180;16737;50.932;6.780;2023-04-19T09:34:12;101030.00;;;18.60
9985;BMP180;16737;50.932;6.780;2023-04-19T09:36:40;101022.00;;;18.70
9985;BMP180;16737;50.932;6.780;2023-04-19T09:39:07;101027.00;;;18.70
9985;BMP180;16737;50.932;6.780;2023-04-19T09:41:50;101028.00;;;18.80
9985;BMP180;16737;50.932;6.780;2023-04-19T09:44:19;101029.00;;;18.80
9985;BMP180;16737;50.932;6.780;2023-04-19T09:46:46;101026.00;;;18.80
9985;BMP180;16737;50.932;6.780;2023-04-19T09:49:20;101025.00;;;18.90
9985;BMP180;16737;50.932;6.780;2023-04-19T09:51:50;101025.00;;;18.90
9985;BMP180;16737;50.932;6.780;2023-04-19T09:54:20;101022.00;;;19.00
9985;BMP180;16737;50.932;6.780;2023-04-19T09:56:50;101006.00;;;19.00
9985;BMP180;16737;50.932;6.780;2023-04-19T09:59:18;101019.00;;;19.10
9985;BMP180;16737;50.932;6.780;2023-04-19T10:01:47;101021.00;;;19.10
9985;BMP180;16737;50.932;6.780;2023-04-19T10:04:15;101016.00;;;19.10
9985;BMP180;16737;50.932;6.780;2023-04-19T10:06:48;101021.00;;;19.10
9985;BMP180;16737;50.932;6.780;2023-04-19T10:09:17;101016.00;;;19.10
9985;BMP180;16737;50.932;6.780;2023-04-19T10:11:50;101012.00;;;19.20
9985;BMP180;16737;50.932;6.780;2023-04-19T10:14:22;101015.00;;;19.20
9985;BMP180;16737;50.932;6.780;2023-04-19T10:16:50;101002.00;;;19.30
9985;BMP180;16737;50.932;6.780;2023-04-19T10:19:21;101008.00;;;19.30
9985;BMP180;16737;50.932;6.780;2023-04-19T10:21:49;100996.00;;;19.30
9985;BMP180;16737;50.932;6.780;2023-04-19T10:24:17;101008.00;;;19.30
9985;BMP180;16737;50.932;6.780;2023-04-19T10:27:07;100988.00;;;19.30
9985;BMP180;16737;50.932;6.780;2023-04-19T10:29:58;100994.00;;;19.30
9985;BMP180;16737;50.932;6.780;2023-04-19T10:32:36;101001.00;;;19.30
9985;BMP180;16737;50.932;6.780;2023-04-19T10:35:08;100991.00;;;19.30
9985;BMP180;16737;50.932;6.780;2023-04-19T10:37:39;100975.00;;;19.30
9985;BMP180;16737;50.932;6.780;2023-04-19T10:40:08;101004.00;;;19.30
9985;BMP180;16737;50.932;6.780;2023-04-19T10:43:18;100960.00;;;19.30
9985;BMP180;16737;50.932;6.780;2023-04-19T10:45:45;100996.00;;;19.40
9985;BMP180;16737;50.932;6.780;2023-04-19T10:48:49;100983.00;;;19.50
9985;BMP180;16737;50.932;6.780;2023-04-19T10:51:19;100984.00;;;19.60
9985;BMP180;16737;50.932;6.780;2023-04-19T10:53:53;100974.00;;;19.60
9985;BMP180;16737;50.932;6.780;2023-04-19T10:59:39;100981.00;;;19.60
9985;BMP180;16737;50.932;6.780;2023-04-19T11:02:26;100969.00;;;19.60
9985;BMP180;16737;50.932;6.780;2023-04-19T11:05:00;100970.00;;;19.70
9985;BMP180;16737;50.932;6.780;2023-04-19T11:07:27;100971.00;;;19.70
9985;BMP180;16737;50.932;6.780;2023-04-19T11:10:02;100972.00;;;19.80
9985;BMP180;16737;50.932;6.780;2023-04-19T11:12:29;100970.00;;;19.80
9985;BMP180;16737;50.932;6.780;2023-04-19T11:14:58;100969.00;;;19.80
9985;BMP180;16737;50.932;6.780;2023-04-19T11:17:29;100967.00;;;19.90
9985;BMP180;16737;50.932;6.780;2023-04-19T11:19:59;100963.00;;;19.90
9985;BMP180;16737;50.932;6.780;2023-04-19T11:22:31;100960.00;;;19.90
9985;BMP180;16737;50.932;6.780;2023-04-19T11:25:10;100955.00;;;19.90
9985;BMP180;16737;50.932;6.780;2023-04-19T11:27:39;100955.00;;;20.00
9985;BMP180;16737;50.932;6.780;2023-04-19T11:30:11;100951.00;;;20.00
9985;BMP180;16737;50.932;6.780;2023-04-19T11:32:44;100947.00;;;20.10
9985;BMP180;16737;50.932;6.780;2023-04-19T11:35:13;100946.00;;;20.10
9985;BMP180;16737;50.932;6.780;2023-04-19T11:37:40;100953.00;;;20.20
9985;BMP180;16737;50.932;6.780;2023-04-19T11:40:08;100945.00;;;20.20
9985;BMP180;16737;50.932;6.780;2023-04-19T11:42:35;100940.00;;;20.20
9985;BMP180;16737;50.932;6.780;2023-04-19T11:45:02;100927.00;;;20.20
9985;BMP180;16737;50.932;6.780;2023-04-19T11:47:31;100934.00;;;20.20
9985;BMP180;16737;50.932;6.780;2023-04-19T11:50:30;100926.00;;;20.20
9985;BMP180;16737;50.932;6.780;2023-04-19T11:52:57;100928.00;;;20.30
9985;BMP180;16737;50.932;6.780;2023-04-19T11:55:32;100931.00;;;20.30
9985;BMP180;16737;50.932;6.780;2023-04-19T11:57:59;100930.00;;;20.40
9985;BMP180;16737;50.932;6.780;2023-04-19T12:00:27;100929.00;;;20.40
9985;BMP180;16737;50.932;6.780;2023-04-19T12:02:56;100918.00;;;20.50
9985;BMP180;16737;50.932;6.780;2023-04-19T12:05:23;100945.00;;;20.30
9985;BMP180;16737;50.932;6.780;2023-04-19T12:08:04;100932.00;;;20.50
9985;BMP180;16737;50.932;6.780;2023-04-19T12:10:34;100932.00;;;20.50
9985;BMP180;16737;50.932;6.780;2023-04-19T12:13:15;100911.00;;;20.50
9985;BMP180;16737;50.932;6.780;2023-04-19T12:15:43;100932.00;;;20.60
9985;BMP180;16737;50.932;6.780;2023-04-19T12:18:13;100927.00;;;20.40
9985;BMP180;16737;50.932;6.780;2023-04-19T12:20:45;100925.00;;;20.60
9985;BMP180;16737;50.932;6.780;2023-04-19T12:23:13;100919.00;;;20.60
9985;BMP180;16737;50.932;6.780;2023-04-19T12:25:41;100917.00;;;20.60
9985;BMP180;16737;50.932;6.780;2023-04-19T12:28:09;100917.00;;;20.60
9985;BMP180;16737;50.932;6.780;2023-04-19T12:30:36;100919.00;;;20.60
9985;BMP180;16737;50.932;6.780;2023-04-19T12:33:03;100916.00;;;20.60
9985;BMP180;16737;50.932;6.780;2023-04-19T12:35:32;100920.00;;;20.60
9985;BMP180;16737;50.932;6.780;2023-04-19T12:38:00;100907.00;;;20.50
9985;BMP180;16737;50.932;6.780;2023-04-19T12:40:28;100918.00;;;20.50
9985;BMP180;16737;50.932;6.780;2023-04-19T12:42:55;100915.00;;;20.60
9985;BMP180;16737;50.932;6.780;2023-04-19T12:45:22;100913.00;;;20.60
9985;BMP180;16737;50.932;6.780;2023-04-19T12:47:49;100903.00;;;20.60
9985;BMP180;16737;50.932;6.780;2023-04-19T12:50:16;100910.00;;;20.60
9985;BMP180;16737;50.932;6.780;2023-04-19T12:52:45;100910.00;;;20.60
9985;BMP180;16737;50.932;6.780;2023-04-19T12:55:12;100908.00;;;20.60
9985;BMP180;16737;50.932;6.780;2023-04-19T12:57:39;100861.00;;;20.60
9985;BMP180;16737;50.932;6.780;2023-04-19T13:00:08;100908.00;;;20.60
9985;BMP180;16737;50.932;6.780;2023-04-19T13:02:36;100904.00;;;20.60
9985;BMP180;16737;50.932;6.780;2023-04-19T13:05:03;100908.00;;;20.60
9985;BMP180;16737;50.932;6.780;2023-04-19T13:07:30;100890.00;;;20.60
9985;BMP180;16737;50.932;6.780;2023-04-19T13:09:59;100890.00;;;20.60
9985;BMP180;16737;50.932;6.780;2023-04-19T13:12:27;100879.00;;;20.60
9985;BMP180;16737;50.932;6.780;2023-04-19T13:14:53;100888.00;;;20.70
9985;BMP180;16737;50.932;6.780;2023-04-19T13:17:20;100893.00;;;20.80
9985;BMP180;16737;50.932;6.780;2023-04-19T13:19:47;100885.00;;;20.80
9985;BMP180;16737;50.932;6.780;2023-04-19T13:22:14;100883.00;;;20.90
9985;BMP180;16737;50.932;6.780;2023-04-19T13:24:41;100881.00;;;20.90
9985;BMP180;16737;50.932;6.780;2023-04-19T13:27:10;100880.00;;;21.00
9985;BMP180;16737;50.932;6.780;2023-04-19T13:29:37;100836.00;;;21.00
9985;BMP180;16737;50.932;6.780;2023-04-19T13:32:07;100862.00;;;21.00
9985;BMP180;16737;50.932;6.780;2023-04-19T13:34:37;100875.00;;;21.10
9985;BMP180;16737;50.932;6.780;2023-04-19T13:37:06;100867.00;;;21.20
9985;BMP180;16737;50.932;6.780;2023-04-19T13:39:33;100869.00;;;21.20
9985;BMP180;16737;50.932;6.780;2023-04-19T13:42:00;100865.00;;;21.30
9985;BMP180;16737;50.932;6.780;2023-04-19T13:44:29;100853.00;;;21.20
9985;BMP180;16737;50.932;6.780;2023-04-19T13:46:56;100852.00;;;21.20
9985;BMP180;16737;50.932;6.780;2023-04-19T13:49:23;100863.00;;;21.20
9985;BMP180;16737;50.932;6.780;2023-04-19T13:51:50;100852.00;;;21.20
9985;BMP180;16737;50.932;6.780;2023-04-19T13:54:18;100849.00;;;21.20
9985;BMP180;16737;50.932;6.780;2023-04-19T13:56:45;100856.00;;;21.20
9985;BMP180;16737;50.932;6.780;2023-04-19T13:59:12;100853.00;;;21.20
9985;BMP180;16737;50.932;6.780;2023-04-19T14:01:41;100846.00;;;21.20
9985;BMP180;16737;50.932;6.780;2023-04-19T14:04:08;100843.00;;;21.20
9985;BMP180;16737;50.932;6.780;2023-04-19T14:06:36;100844.00;;;21.30
9985;BMP180;16737;50.932;6.780;2023-04-19T14:09:03;100839.00;;;21.30
9985;BMP180;16737;50.932;6.780;2023-04-19T14:11:32;100810.00;;;21.30
9985;BMP180;16737;50.932;6.780;2023-04-19T14:13:59;100829.00;;;21.40
9985;BMP180;16737;50.932;6.780;2023-04-19T14:16:26;100828.00;;;21.40
9985;BMP180;16737;50.932;6.780;2023-04-19T14:18:58;100835.00;;;21.40